createdAt,value
2023-03-26T00:00:43.662Z,71.04
2023-03-26T00:03:14.835Z,70.42
2023-03-26T00:05:41.402Z,70.47
2023-03-26T00:08:11.210Z,70.58
2023-03-26T00:10:40.335Z,70.44
2023-03-26T00:13:07.632Z,70.18
2023-03-26T00:15:35.517Z,70.29
2023-03-26T00:18:02.206Z,70.17
2023-03-26T00:20:32.847Z,70.18
2023-03-26T00:23:02.537Z,70.74
2023-03-26T00:25:28.897Z,69.97
2023-03-26T00:27:55.591Z,69.67
2023-03-26T00:30:22.195Z,69.85
2023-03-26T00:32:48.640Z,70.85
2023-03-26T00:35:20.774Z,71.27
2023-03-26T00:37:47.165Z,71.29
2023-03-26T00:40:13.863Z,72.04
2023-03-26T00:42:40.215Z,71.63
2023-03-26T00:45:07.364Z,71.42
2023-03-26T00:47:34.381Z,71.74
2023-03-26T00:50:01.157Z,71.00
2023-03-26T00:52:28.716Z,71.63
2023-03-26T00:54:57.605Z,71.36
2023-03-26T00:57:35.004Z,71.43
2023-03-26T01:00:15.924Z,71.62
2023-03-26T01:02:45.046Z,71.84
2023-03-26T01:05:36.374Z,71.79
2023-03-26T01:08:19.069Z,71.90
2023-03-26T01:10:50.739Z,71.40
2023-03-26T01:13:22.869Z,71.47
2023-03-26T01:15:51.183Z,71.62
2023-03-26T01:18:20.705Z,71.71
2023-03-26T01:20:49.706Z,71.48
2023-03-26T01:23:23.561Z,71.35
2023-03-26T01:26:01.425Z,72.84
2023-03-26T01:28:32.109Z,72.48
2023-03-26T01:31:21.763Z,72.15
2023-03-26T01:33:57.840Z,71.81
2023-03-26T01:36:50.101Z,71.25
2023-03-26T01:39:28.170Z,71.06
2023-03-26T01:42:02.250Z,71.30
2023-03-26T01:44:36.130Z,71.72
2023-03-26T01:47:03.935Z,71.51
2023-03-26T01:49:31.542Z,71.43
2023-03-26T01:52:00.606Z,71.67
2023-03-26T01:54:31.149Z,71.75
2023-03-26T01:57:10.347Z,71.84
2023-03-26T01:59:58.513Z,71.92
2023-03-26T02:03:01.833Z,72.41
2023-03-26T02:05:41.151Z,72.86
2023-03-26T02:08:23.105Z,73.18
2023-03-26T02:10:55.747Z,73.03
2023-03-26T02:13:22.465Z,73.58
2023-03-26T02:16:00.893Z,74.17
2023-03-26T02:18:39.002Z,73.93
2023-03-26T02:21:21.307Z,74.35
2023-03-26T02:23:58.130Z,74.53
2023-03-26T02:26:25.282Z,74.45
2023-03-26T02:28:52.047Z,74.96
2023-03-26T02:31:19.392Z,74.75
2023-03-26T02:33:47.627Z,74.90
2023-03-26T02:36:14.309Z,75.08
2023-03-26T02:38:41.566Z,74.77
2023-03-26T02:41:07.958Z,74.59
2023-03-26T02:43:34.301Z,75.29
2023-03-26T02:46:00.679Z,76.16
2023-03-26T02:48:27.069Z,76.60
2023-03-26T02:50:56.378Z,76.67
2023-03-26T02:53:23.861Z,77.04
2023-03-26T02:55:51.004Z,76.81
2023-03-26T02:58:17.703Z,76.71
2023-03-26T03:00:45.993Z,76.86
2023-03-26T03:03:13.439Z,76.36
2023-03-26T03:05:42.982Z,76.48
2023-03-26T03:08:09.676Z,76.09
2023-03-26T03:10:37.759Z,75.95
2023-03-26T03:13:07.612Z,75.80
2023-03-26T03:15:34.758Z,76.39
2023-03-26T03:18:01.226Z,77.27
2023-03-26T03:20:30.245Z,77.83
2023-03-26T03:22:59.882Z,78.02
2023-03-26T03:25:26.570Z,78.20
2023-03-26T03:27:53.940Z,78.28
2023-03-26T03:30:20.821Z,78.14
2023-03-26T03:32:47.766Z,78.45
2023-03-26T03:35:14.171Z,78.33
2023-03-26T03:37:40.539Z,78.11
2023-03-26T03:40:08.106Z,78.49
2023-03-26T03:42:34.434Z,78.72
2023-03-26T03:45:01.915Z,78.95
2023-03-26T03:47:28.322Z,78.97
2023-03-26T03:49:54.700Z,78.98
2023-03-26T03:52:21.037Z,79.37
2023-03-26T03:54:47.413Z,79.36
2023-03-26T03:57:15.937Z,78.89
2023-03-26T03:59:48.074Z,78.46
2023-03-26T04:02:21.213Z,78.96
2023-03-26T04:04:50.089Z,79.03
2023-03-26T04:07:16.540Z,79.06
2023-03-26T04:09:42.976Z,78.90
2023-03-26T04:12:09.318Z,79.38
2023-03-26T04:14:35.816Z,79.30
2023-03-26T04:17:02.208Z,79.11
2023-03-26T04:19:28.679Z,79.17
2023-03-26T04:21:55.303Z,79.07
2023-03-26T04:24:24.555Z,79.25
2023-03-26T04:26:50.968Z,78.68
2023-03-26T04:29:21.924Z,78.57
2023-03-26T04:31:50.406Z,78.21
2023-03-26T04:34:24.404Z,77.61
2023-03-26T04:36:54.537Z,77.60
2023-03-26T04:39:29.014Z,77.11
2023-03-26T04:41:56.281Z,77.69
2023-03-26T04:44:22.665Z,76.97
2023-03-26T04:46:50.105Z,76.56
2023-03-26T04:49:16.518Z,77.11
2023-03-26T04:51:44.745Z,77.04
2023-03-26T04:54:13.420Z,77.02
2023-03-26T04:57:01.027Z,77.14
2023-03-26T04:59:34.469Z,77.07
2023-03-26T05:02:06.109Z,76.92
2023-03-26T05:04:36.750Z,76.46
2023-03-26T05:07:03.183Z,75.93
2023-03-26T05:09:29.557Z,76.04
2023-03-26T05:11:57.284Z,76.01
2023-03-26T05:14:24.234Z,75.47
2023-03-26T05:16:53.219Z,75.71
2023-03-26T05:19:19.634Z,75.99
2023-03-26T05:21:45.993Z,75.65
2023-03-26T05:24:12.366Z,75.52
2023-03-26T05:26:38.713Z,75.65
2023-03-26T05:29:05.297Z,75.93
2023-03-26T05:31:32.035Z,75.63
2023-03-26T05:34:00.541Z,75.82
2023-03-26T05:36:28.370Z,76.27
2023-03-26T05:38:54.788Z,76.18
2023-03-26T05:41:21.163Z,75.83
2023-03-26T05:43:48.846Z,75.83
2023-03-26T05:46:15.994Z,75.74
2023-03-26T05:48:42.449Z,75.66
2023-03-26T05:51:08.942Z,75.58
2023-03-26T05:53:35.339Z,75.54
2023-03-26T05:56:01.987Z,75.68
2023-03-26T05:58:31.348Z,75.61
2023-03-26T06:00:58.426Z,75.51
2023-03-26T06:03:25.176Z,75.27
2023-03-26T06:05:51.910Z,75.13
2023-03-26T06:08:19.403Z,74.64
2023-03-26T06:10:45.945Z,74.35
2023-03-26T06:13:13.591Z,74.77
2023-03-26T06:15:39.939Z,74.81
2023-03-26T06:18:06.350Z,74.14
2023-03-26T06:20:32.904Z,74.36
2023-03-26T06:22:59.253Z,73.91
2023-03-26T06:25:25.605Z,73.99
2023-03-26T06:27:51.961Z,73.91
2023-03-26T06:30:18.293Z,74.11
2023-03-26T06:32:44.653Z,73.77
2023-03-26T06:35:11.438Z,73.75
2023-03-26T06:37:37.882Z,74.00
2023-03-26T06:40:05.125Z,74.04
2023-03-26T06:43:06.722Z,73.88
2023-03-26T06:45:18.187Z,74.04
2023-03-26T06:47:44.577Z,74.27
2023-03-26T06:50:11.841Z,73.63
2023-03-26T06:52:38.449Z,73.69
2023-03-26T06:55:06.509Z,73.42
2023-03-26T06:57:32.883Z,72.97
2023-03-26T06:59:59.217Z,73.62
2023-03-26T07:02:26.443Z,73.23
2023-03-26T07:04:53.464Z,73.45
2023-03-26T07:07:21.705Z,73.26
2023-03-26T07:09:48.298Z,73.53
2023-03-26T07:12:15.236Z,72.93
2023-03-26T07:14:41.622Z,72.38
2023-03-26T07:17:08.233Z,71.72
2023-03-26T07:19:34.611Z,71.77
2023-03-26T07:22:01.590Z,71.62
2023-03-26T07:24:28.334Z,71.60
2023-03-26T07:26:58.670Z,70.81
2023-03-26T07:29:35.505Z,71.52
2023-03-26T07:32:11.800Z,70.38
2023-03-26T07:35:00.744Z,70.78
2023-03-26T07:37:56.084Z,70.37
2023-03-26T07:40:57.376Z,70.26
2023-03-26T07:43:45.425Z,70.03
2023-03-26T07:46:13.080Z,70.33
2023-03-26T07:48:44.916Z,71.07
2023-03-26T07:51:11.943Z,70.45
2023-03-26T07:53:38.473Z,69.87
2023-03-26T07:56:14.465Z,70.38
2023-03-26T07:59:20.676Z,70.08
2023-03-26T08:02:24.297Z,71.15
2023-03-26T08:04:55.933Z,70.69
2023-03-26T08:07:47.115Z,71.45
2023-03-26T08:10:27.171Z,70.74
2023-03-26T08:13:19.617Z,70.94
2023-03-26T08:15:58.027Z,71.35
2023-03-26T08:18:46.756Z,71.44
2023-03-26T08:21:20.541Z,71.41
2023-03-26T08:24:13.269Z,69.89
2023-03-26T08:27:13.411Z,69.70
2023-03-26T08:29:51.600Z,69.44
2023-03-26T08:32:20.091Z,68.99
2023-03-26T08:34:46.717Z,69.23
2023-03-26T08:37:13.354Z,68.97
2023-03-26T08:39:41.929Z,69.03
2023-03-26T08:42:30.572Z,68.93
2023-03-26T08:45:28.947Z,67.90
2023-03-26T08:48:26.640Z,68.62
2023-03-26T08:51:18.728Z,68.05
2023-03-26T08:54:27.190Z,68.03
2023-03-26T08:57:39.978Z,68.03
2023-03-26T09:00:28.135Z,67.44
2023-03-26T09:03:03.459Z,67.50
2023-03-26T09:06:13.177Z,67.05
2023-03-26T09:09:18.772Z,66.66
2023-03-26T09:12:25.457Z,67.04
2023-03-26T09:15:21.314Z,66.75
2023-03-26T09:18:23.214Z,66.62
2023-03-26T09:21:27.322Z,65.86
2023-03-26T09:24:31.334Z,65.92
2023-03-26T09:27:16.383Z,65.95
2023-03-26T09:30:20.539Z,65.55
2023-03-26T09:33:13.352Z,65.54
2023-03-26T09:36:10.386Z,66.16
2023-03-26T09:39:09.130Z,64.55
2023-03-26T09:42:03.875Z,64.56
2023-03-26T09:45:01.308Z,64.59
2023-03-26T09:47:30.570Z,64.20
2023-03-26T09:50:21.633Z,63.51
2023-03-26T09:53:03.676Z,62.86
2023-03-26T09:55:54.325Z,63.39
2023-03-26T09:58:29.598Z,62.42
2023-03-26T10:01:20.640Z,61.17
2023-03-26T10:04:03.619Z,61.13
2023-03-26T10:06:56.623Z,60.02
2023-03-26T10:09:38.888Z,59.18
2023-03-26T10:12:24.344Z,59.36
2023-03-26T10:15:16.652Z,59.27
2023-03-26T10:17:51.998Z,59.50
2023-03-26T10:20:27.685Z,59.17
2023-03-26T10:23:15.863Z,59.54
2023-03-26T10:26:19.678Z,58.57
2023-03-26T10:29:04.534Z,58.61
2023-03-26T10:31:51.808Z,58.58
2023-03-26T10:34:49.543Z,58.62
2023-03-26T10:37:29.885Z,58.65
2023-03-26T10:40:26.966Z,58.95
2023-03-26T10:43:19.744Z,58.21
2023-03-26T10:45:54.345Z,58.48
2023-03-26T10:48:42.992Z,58.62
2023-03-26T10:51:21.019Z,57.93
2023-03-26T10:54:12.391Z,56.61
2023-03-26T10:56:46.514Z,55.16
2023-03-26T10:59:14.454Z,55.63
2023-03-26T11:02:04.461Z,55.38
2023-03-26T11:04:55.957Z,55.05
2023-03-26T11:07:36.250Z,54.35
2023-03-26T11:10:11.558Z,53.32
2023-03-26T11:13:00.656Z,52.45
2023-03-26T11:15:34.037Z,52.21
2023-03-26T11:18:15.925Z,52.15
2023-03-26T11:21:18.124Z,51.58
2023-03-26T11:24:17.942Z,51.53
2023-03-26T11:26:52.859Z,51.79
2023-03-26T11:29:40.936Z,51.90
2023-03-26T11:32:22.786Z,52.51
2023-03-26T11:35:15.496Z,53.26
2023-03-26T11:37:46.340Z,53.17
2023-03-26T11:40:34.800Z,52.21
2023-03-26T11:43:04.795Z,51.40
2023-03-26T11:45:37.254Z,51.47
2023-03-26T11:48:08.093Z,51.94
2023-03-26T11:50:38.640Z,52.09
2023-03-26T11:53:14.597Z,52.78
2023-03-26T11:55:47.450Z,50.83
2023-03-26T11:58:30.934Z,51.53
2023-03-26T12:00:57.499Z,51.09
2023-03-26T12:03:24.117Z,51.57
2023-03-26T12:05:57.745Z,50.20
2023-03-26T12:08:32.850Z,50.63
2023-03-26T12:11:05.706Z,51.70
2023-03-26T12:13:50.568Z,52.75
2023-03-26T12:16:19.786Z,52.12
2023-03-26T12:18:47.445Z,51.38
2023-03-26T12:21:19.257Z,51.60
2023-03-26T12:23:58.442Z,52.06
2023-03-26T12:26:48.791Z,51.68
2023-03-26T12:29:17.704Z,52.16
2023-03-26T12:32:04.613Z,52.39
2023-03-26T12:34:35.242Z,53.10
2023-03-26T12:37:03.573Z,53.28
2023-03-26T12:40:09.974Z,53.00
2023-03-26T12:44:50.583Z,53.20
2023-03-26T12:45:15.690Z,52.82
2023-03-26T12:47:58.828Z,52.61
2023-03-26T12:50:41.385Z,53.03
2023-03-26T12:53:21.484Z,53.33
2023-03-26T12:56:00.407Z,53.95
2023-03-26T12:58:58.150Z,53.10
2023-03-26T13:01:38.769Z,54.47
2023-03-26T13:04:27.335Z,54.50
2023-03-26T13:07:25.028Z,54.67
2023-03-26T13:10:30.428Z,54.63
2023-03-26T13:13:16.807Z,53.67
2023-03-26T13:15:49.943Z,53.36
2023-03-26T13:18:48.161Z,53.26
2023-03-26T13:21:25.957Z,54.56
2023-03-26T13:24:21.229Z,54.49
2023-03-26T13:27:26.337Z,54.58
2023-03-26T13:30:14.582Z,54.62
2023-03-26T13:32:58.729Z,54.75
2023-03-26T13:35:48.310Z,54.99
2023-03-26T13:38:23.782Z,54.90
2023-03-26T13:41:20.938Z,54.15
2023-03-26T13:43:58.169Z,54.60
2023-03-26T13:46:24.506Z,54.74
2023-03-26T13:48:57.695Z,54.45
2023-03-26T13:51:31.850Z,54.57
2023-03-26T13:54:05.766Z,55.16
2023-03-26T13:56:40.863Z,55.05
2023-03-26T13:59:19.093Z,55.63
2023-03-26T14:01:56.577Z,57.24
2023-03-26T14:04:33.646Z,58.12
2023-03-26T14:07:11.999Z,58.40
2023-03-26T14:09:48.870Z,59.66
2023-03-26T14:12:40.391Z,60.71
2023-03-26T14:15:15.380Z,60.11
2023-03-26T14:17:48.458Z,60.85
2023-03-26T14:20:17.496Z,61.38
2023-03-26T14:23:08.004Z,61.33
2023-03-26T14:25:53.089Z,61.83
2023-03-26T14:28:47.000Z,62.35
2023-03-26T14:31:32.224Z,63.74
2023-03-26T14:34:13.865Z,64.92
2023-03-26T14:36:53.015Z,65.28
2023-03-26T14:39:37.097Z,65.44
2023-03-26T14:42:17.757Z,65.93
2023-03-26T14:45:14.657Z,66.25
2023-03-26T14:47:59.354Z,66.51
2023-03-26T14:50:42.496Z,67.37
2023-03-26T14:53:33.351Z,67.76
2023-03-26T14:56:09.487Z,67.86
2023-03-26T14:59:22.928Z,68.12
2023-03-26T15:02:37.461Z,68.21
2023-03-26T15:05:15.857Z,67.51
2023-03-26T15:08:06.898Z,68.07
2023-03-26T15:10:54.569Z,68.26
2023-03-26T15:13:46.464Z,69.35
2023-03-26T15:16:45.502Z,69.11
2023-03-26T15:19:59.721Z,69.12
2023-03-26T15:22:52.610Z,69.86
2023-03-26T15:25:45.286Z,69.19
2023-03-26T15:28:23.559Z,69.25
2023-03-26T15:31:09.817Z,70.06
2023-03-26T15:34:13.944Z,70.75
2023-03-26T15:37:00.269Z,70.81
2023-03-26T15:39:59.652Z,72.11
2023-03-26T15:42:45.616Z,72.07
2023-03-26T15:45:33.510Z,72.79
2023-03-26T15:48:12.492Z,73.21
2023-03-26T15:50:57.910Z,73.09
2023-03-26T15:53:36.561Z,72.96
2023-03-26T15:56:38.298Z,73.57
2023-03-26T15:59:14.380Z,73.60
2023-03-26T16:02:09.985Z,73.74
2023-03-26T16:04:51.633Z,73.51
2023-03-26T16:07:38.900Z,74.94
2023-03-26T16:10:17.163Z,74.87
2023-03-26T16:13:11.831Z,75.65
2023-03-26T16:15:38.524Z,76.24
2023-03-26T16:18:19.167Z,76.87
2023-03-26T16:20:57.120Z,76.79
2023-03-26T16:23:53.686Z,76.96
2023-03-26T16:26:35.498Z,77.69
2023-03-26T16:29:04.605Z,78.00
2023-03-26T16:31:37.857Z,78.53
2023-03-26T16:34:04.909Z,79.56
2023-03-26T16:36:36.239Z,80.11
2023-03-26T16:39:05.514Z,79.74
2023-03-26T16:41:51.213Z,80.66
2023-03-26T16:44:28.981Z,80.43
2023-03-26T16:47:15.363Z,80.80
2023-03-26T16:50:10.587Z,81.07
2023-03-26T16:53:15.680Z,80.78
2023-03-26T16:56:02.600Z,81.14
2023-03-26T16:58:37.807Z,81.64
2023-03-26T17:01:17.523Z,82.11
2023-03-26T17:03:56.655Z,82.77
2023-03-26T17:07:09.001Z,82.17
2023-03-26T17:10:12.897Z,82.46
2023-03-26T17:12:59.639Z,81.99
2023-03-26T17:15:56.010Z,82.69
2023-03-26T17:18:31.384Z,81.96
2023-03-26T17:21:04.897Z,82.14
2023-03-26T17:23:53.148Z,80.89
2023-03-26T17:26:42.200Z,81.80
2023-03-26T17:29:18.716Z,81.88
2023-03-26T17:32:03.293Z,81.16
2023-03-26T17:34:46.610Z,81.61
2023-03-26T17:37:18.898Z,81.93
2023-03-26T17:39:48.088Z,83.42
2023-03-26T17:42:35.574Z,83.35
2023-03-26T17:45:07.868Z,83.54
2023-03-26T17:47:52.697Z,83.27
2023-03-26T17:50:30.009Z,82.11
2023-03-26T17:53:07.433Z,81.81
2023-03-26T17:55:37.837Z,81.59
2023-03-26T17:58:07.223Z,81.74
2023-03-26T18:00:42.831Z,82.14
2023-03-26T18:03:20.013Z,83.40
2023-03-26T18:05:48.788Z,82.95
2023-03-26T18:08:39.159Z,83.29
2023-03-26T18:11:19.555Z,84.38
2023-03-26T18:13:51.880Z,84.95
2023-03-26T18:16:24.227Z,83.02
2023-03-26T18:19:19.142Z,83.89
2023-03-26T18:22:03.224Z,82.83
2023-03-26T18:24:38.007Z,82.85
2023-03-26T18:27:12.478Z,84.11
2023-03-26T18:29:44.301Z,83.79
2023-03-26T18:32:10.632Z,84.38
2023-03-26T18:34:39.851Z,84.76
2023-03-26T18:37:24.333Z,85.01
2023-03-26T18:40:07.396Z,85.38
2023-03-26T18:42:33.946Z,85.27
2023-03-26T18:45:07.861Z,84.45
2023-03-26T18:47:36.541Z,84.64
2023-03-26T18:50:03.115Z,84.07
2023-03-26T18:52:31.945Z,84.53
2023-03-26T18:54:59.453Z,84.62
2023-03-26T18:57:28.720Z,84.27
2023-03-26T19:00:08.783Z,83.88
2023-03-26T19:02:35.819Z,84.18
2023-03-26T19:05:02.877Z,84.24
2023-03-26T19:07:29.722Z,84.27
2023-03-26T19:09:56.700Z,84.63
2023-03-26T19:12:29.155Z,85.10
2023-03-26T19:15:09.854Z,85.14
2023-03-26T19:17:53.304Z,85.82
2023-03-26T19:20:27.154Z,85.29
2023-03-26T19:22:55.199Z,85.59
2023-03-26T19:25:40.698Z,85.62
2023-03-26T19:28:17.040Z,85.94
2023-03-26T19:30:43.816Z,85.80
2023-03-26T19:33:18.855Z,86.62
2023-03-26T19:35:51.706Z,86.14
2023-03-26T19:38:41.610Z,86.33
2023-03-26T19:41:23.344Z,85.47
2023-03-26T19:43:51.606Z,86.04
2023-03-26T19:46:21.701Z,86.19
2023-03-26T19:48:52.553Z,85.93
2023-03-26T19:51:21.227Z,85.95
2023-03-26T19:53:55.681Z,85.05
2023-03-26T19:56:22.774Z,85.42
2023-03-26T19:58:50.132Z,86.08
2023-03-26T20:01:18.930Z,85.94
2023-03-26T20:03:48.594Z,85.84
2023-03-26T20:06:22.164Z,85.86
2023-03-26T20:08:53.056Z,85.50
2023-03-26T20:11:21.354Z,85.67
2023-03-26T20:13:48.247Z,85.55
2023-03-26T20:16:27.879Z,85.50
2023-03-26T20:19:02.357Z,84.85
2023-03-26T20:21:29.977Z,83.81
2023-03-26T20:23:56.313Z,84.21
2023-03-26T20:26:24.055Z,85.20
2023-03-26T20:28:53.502Z,85.24
2023-03-26T20:31:23.160Z,84.73
2023-03-26T20:33:50.628Z,84.62
2023-03-26T20:36:33.201Z,84.71
2023-03-26T20:39:01.206Z,84.17
2023-03-26T20:41:27.829Z,84.78
2023-03-26T20:43:54.266Z,83.79
2023-03-26T20:46:31.065Z,83.79
2023-03-26T20:48:59.350Z,83.68
2023-03-26T20:51:28.193Z,82.65
2023-03-26T20:53:55.437Z,83.42
2023-03-26T20:56:21.972Z,82.48
2023-03-26T20:58:52.696Z,82.50
2023-03-26T21:01:27.786Z,83.29
2023-03-26T21:03:54.307Z,82.68
2023-03-26T21:06:20.644Z,82.51
2023-03-26T21:08:47.323Z,83.46
2023-03-26T21:11:37.017Z,82.58
2023-03-26T21:14:09.383Z,83.42
2023-03-26T21:16:36.307Z,84.15
2023-03-26T21:19:03.032Z,84.69
2023-03-26T21:21:46.113Z,85.47
2023-03-26T21:24:23.845Z,84.28
2023-03-26T21:27:09.610Z,85.38
2023-03-26T21:29:36.689Z,86.63
2023-03-26T21:32:03.282Z,85.57
2023-03-26T21:34:32.821Z,86.44
2023-03-26T21:37:00.115Z,86.47
2023-03-26T21:39:27.865Z,86.10
2023-03-26T21:42:05.248Z,85.70
2023-03-26T21:44:32.922Z,85.90
2023-03-26T21:46:59.510Z,86.30
2023-03-26T21:49:26.147Z,86.13
2023-03-26T21:51:52.764Z,85.89
2023-03-26T21:54:25.608Z,85.72
2023-03-26T21:57:26.850Z,85.99
2023-03-26T22:00:02.414Z,85.90
2023-03-26T22:02:54.572Z,85.50
2023-03-26T22:05:45.974Z,85.87
2023-03-26T22:08:33.406Z,86.41
2023-03-26T22:10:59.910Z,86.33
2023-03-26T22:13:27.144Z,85.78
2023-03-26T22:15:53.696Z,84.72
2023-03-26T22:18:25.769Z,84.84
2023-03-26T22:20:52.934Z,84.74
2023-03-26T22:23:19.794Z,85.49
2023-03-26T22:25:46.370Z,85.64
2023-03-26T22:28:13.727Z,86.03
2023-03-26T22:30:40.125Z,86.86
2023-03-26T22:33:10.862Z,86.85
2023-03-26T22:35:38.166Z,87.17
2023-03-26T22:38:05.039Z,87.60
2023-03-26T22:40:31.835Z,88.10
2023-03-26T22:42:58.274Z,88.74
2023-03-26T22:45:24.642Z,88.63
2023-03-26T22:47:51.076Z,88.58
2023-03-26T22:50:17.629Z,88.85
2023-03-26T22:52:44.035Z,89.26
2023-03-26T22:55:11.563Z,89.71
2023-03-26T22:57:38.651Z,89.73
2023-03-26T23:00:15.526Z,89.35
2023-03-26T23:02:44.944Z,89.77
2023-03-26T23:05:13.247Z,89.51
2023-03-26T23:07:40.187Z,90.10
2023-03-26T23:10:07.471Z,90.16
2023-03-26T23:12:33.836Z,90.35
2023-03-26T23:15:04.931Z,90.38
2023-03-26T23:17:35.591Z,90.17
2023-03-26T23:20:06.122Z,89.65
2023-03-26T23:22:32.510Z,89.36
2023-03-26T23:24:58.833Z,89.54
2023-03-26T23:27:25.328Z,89.68
2023-03-26T23:29:51.689Z,90.91
2023-03-26T23:32:23.476Z,90.62
2023-03-26T23:34:51.757Z,90.83
2023-03-26T23:37:22.902Z,90.91
2023-03-26T23:39:50.489Z,91.21
2023-03-26T23:42:17.129Z,91.05
2023-03-26T23:44:56.757Z,91.67
2023-03-26T23:47:23.181Z,91.89
2023-03-26T23:49:49.738Z,91.69
2023-03-26T23:52:16.150Z,91.56
2023-03-26T23:54:42.562Z,90.92
2023-03-26T23:57:09.014Z,91.41
2023-03-26T23:59:35.578Z,92.15
